Alamillo, New Mexico
Current Conditions -  °F | °C
As of 2:15 AM on Monday 22 Dec 2014 (Local Time) from KONM Reporting Station
Clear Clear  
Wind Chill: 46°   Ceiling: Unl
Heat Index: 49°   Visibility: 10mi
Dew Point: 32°   Wind: 7mph
Humidity: 52%   Direction: 360°N
Pressure: 29.92"   Gusts: NA
Location:  34.262°N, 106.87°W
Report Text: KONM 220915Z AUTO 36006KT 10SM CLR 10/00 A2992 RMK AO2 T00950000
Loading
Personal Weather Stations






























Interactive Weather Map New forecast layout! Learn more

10-Day Weather Forecast

Advertisements
Track Severe Weather on mobile